createdAt,value
2022-08-23T00:00:36.768Z,100901.38
2022-08-23T00:01:47.891Z,100908.03
2022-08-23T00:02:51.558Z,100900.28
2022-08-23T00:03:56.292Z,100904.25
2022-08-23T00:05:08.687Z,100907.19
2022-08-23T00:06:11.476Z,100911.09
2022-08-23T00:07:17.655Z,100904.03
2022-08-23T00:08:19.336Z,100907.16
2022-08-23T00:09:24.722Z,100904.63
2022-08-23T00:10:26.422Z,100904.19
2022-08-23T00:11:35.624Z,100899.19
2022-08-23T00:12:40.084Z,100900.44
2022-08-23T00:13:47.318Z,100895.41
2022-08-23T00:14:54.308Z,100892.06
2022-08-23T00:15:55.932Z,100902.03
2022-08-23T00:16:59.873Z,100889.75
2022-08-23T00:18:01.778Z,100891.84
2022-08-23T00:19:05.651Z,100896.41
2022-08-23T00:20:12.113Z,100888.69
2022-08-23T00:21:13.817Z,100891.59
2022-08-23T00:22:17.783Z,100893.66
2022-08-23T00:23:19.417Z,100888.66
2022-08-23T00:24:23.262Z,100880.72
2022-08-23T00:25:24.904Z,100884.88
2022-08-23T00:26:27.965Z,100877.78
2022-08-23T00:27:29.600Z,100877.16
2022-08-23T00:28:32.849Z,100876.50
2022-08-23T00:29:38.789Z,100874.81
2022-08-23T00:30:41.337Z,100877.72
2022-08-23T00:31:42.921Z,100873.56
2022-08-23T00:32:46.115Z,100874.56
2022-08-23T00:33:47.740Z,100874.75
2022-08-23T00:34:50.762Z,100866.88
2022-08-23T00:35:52.734Z,100876.00
2022-08-23T00:36:55.955Z,100876.22
2022-08-23T00:38:31.922Z,100878.91
2022-08-23T00:39:22.048Z,100880.16
2022-08-23T00:40:23.870Z,100875.78
2022-08-23T00:41:27.203Z,100884.06
2022-08-23T00:42:51.912Z,100872.41
2022-08-23T00:44:13.907Z,100877.19
2022-08-23T00:45:38.267Z,100879.06
2022-08-23T00:47:03.135Z,100879.28
2022-08-23T00:48:07.690Z,100878.63
2022-08-23T00:49:12.823Z,100879.69
2022-08-23T00:50:24.595Z,100878.00
2022-08-23T00:51:32.347Z,100885.09
2022-08-23T00:52:57.731Z,100886.09
2022-08-23T00:54:02.053Z,100885.47
2022-08-23T00:55:05.416Z,100882.13
2022-08-23T00:56:09.629Z,100880.44
2022-08-23T00:57:17.968Z,100873.38
2022-08-23T00:58:21.466Z,100883.34
2022-08-23T00:59:24.350Z,100883.75
2022-08-23T01:00:28.089Z,100874.19
2022-08-23T01:01:30.874Z,100890.41
2022-08-23T01:02:33.011Z,100881.63
2022-08-23T01:03:40.365Z,100894.50
2022-08-23T01:04:49.378Z,100891.16
2022-08-23T01:05:57.293Z,100884.94
2022-08-23T01:07:04.408Z,100886.97
2022-08-23T01:08:07.249Z,100891.53
2022-08-23T01:09:15.544Z,100891.94
2022-08-23T01:10:24.231Z,100895.69
2022-08-23T01:11:35.452Z,100892.53
2022-08-23T01:12:41.381Z,100889.00
2022-08-23T01:13:48.219Z,100894.81
2022-08-23T01:14:56.185Z,100899.38
2022-08-23T01:16:03.256Z,100896.03
2022-08-23T01:17:10.805Z,100893.50
2022-08-23T01:18:17.767Z,100897.22
2022-08-23T01:19:25.247Z,100902.00
2022-08-23T01:20:29.255Z,100903.03
2022-08-23T01:21:37.346Z,100906.78
2022-08-23T01:22:51.880Z,100904.25
2022-08-23T01:23:59.370Z,100897.19
2022-08-23T01:25:07.398Z,100905.28
2022-08-23T01:26:12.779Z,100900.28
2022-08-23T01:27:14.648Z,100900.47
2022-08-23T01:28:18.232Z,100909.59
2022-08-23T01:29:19.925Z,100913.28
2022-08-23T01:30:24.668Z,100911.66
2022-08-23T01:31:26.755Z,100906.25
2022-08-23T01:32:30.193Z,100910.97
2022-08-23T01:33:31.912Z,100913.69
2022-08-23T01:34:35.170Z,100908.50
2022-08-23T01:35:42.137Z,100911.19
2022-08-23T01:36:44.857Z,100901.59
2022-08-23T01:37:47.753Z,100905.34
2022-08-23T01:38:49.401Z,100905.34
2022-08-23T01:39:55.058Z,100906.34
2022-08-23T01:40:56.852Z,100907.59
2022-08-23T01:41:59.526Z,100910.28
2022-08-23T01:43:02.017Z,100913.16
2022-08-23T01:44:05.686Z,100904.44
2022-08-23T01:45:10.191Z,100905.28
2022-08-23T01:46:16.643Z,100908.16
2022-08-23T01:47:18.506Z,100911.06
2022-08-23T01:48:22.434Z,100907.69
2022-08-23T01:49:24.195Z,100911.25
2022-08-23T01:50:28.089Z,100916.00
2022-08-23T01:51:29.912Z,100910.78
2022-08-23T01:52:32.800Z,100919.72
2022-08-23T01:53:34.562Z,100912.84
2022-08-23T01:54:37.489Z,100914.72
2022-08-23T01:55:42.123Z,100917.63
2022-08-23T01:56:45.580Z,100913.25
2022-08-23T01:57:51.171Z,100913.25
2022-08-23T01:58:53.788Z,100914.47
2022-08-23T01:59:55.845Z,100914.47
2022-08-23T02:00:58.649Z,100912.78
2022-08-23T02:02:00.503Z,100912.97
2022-08-23T02:03:04.355Z,100913.16
2022-08-23T02:04:05.995Z,100917.91
2022-08-23T02:05:10.274Z,100916.25
2022-08-23T02:06:11.945Z,100910.19
2022-08-23T02:07:14.651Z,100922.03
2022-08-23T02:08:34.998Z,100914.94
2022-08-23T02:09:37.667Z,100914.94
2022-08-23T02:10:40.701Z,100917.00
2022-08-23T02:11:43.944Z,100915.34
2022-08-23T02:12:46.894Z,100924.44
2022-08-23T02:13:50.058Z,100917.41
2022-08-23T02:14:52.105Z,100918.41
2022-08-23T02:15:55.042Z,100916.94
2022-08-23T02:17:03.905Z,100916.09
2022-08-23T02:18:07.461Z,100918.13
2022-08-23T02:19:11.768Z,100915.44
2022-08-23T02:20:14.869Z,100913.97
2022-08-23T02:21:16.651Z,100914.81
2022-08-23T02:22:19.430Z,100922.25
2022-08-23T02:23:24.611Z,100918.50
2022-08-23T02:24:28.206Z,100919.56
2022-08-23T02:25:29.829Z,100920.59
2022-08-23T02:26:35.557Z,100915.19
2022-08-23T02:27:38.420Z,100913.50
2022-08-23T02:28:46.834Z,100917.88
2022-08-23T02:29:50.112Z,100919.75
2022-08-23T02:30:54.452Z,100924.28
2022-08-23T02:31:57.891Z,100929.69
2022-08-23T02:32:59.590Z,100924.28
2022-08-23T02:36:44.046Z,100929.22
2022-08-23T02:37:46.742Z,100927.59
2022-08-23T02:38:48.494Z,100926.75
2022-08-23T02:39:51.394Z,100928.78
2022-08-23T02:41:00.709Z,100932.53
2022-08-23T02:42:05.934Z,100928.31
2022-08-23T02:43:08.480Z,100932.06
2022-08-23T02:44:11.679Z,100926.81
2022-08-23T02:45:13.732Z,100935.78
2022-08-23T02:46:16.438Z,100930.38
2022-08-23T02:47:18.910Z,100922.47
2022-08-23T02:48:22.537Z,100930.75
2022-08-23T02:49:24.278Z,100924.50
2022-08-23T02:50:27.664Z,100929.91
2022-08-23T02:51:29.498Z,100939.69
2022-08-23T02:52:32.252Z,100937.00
2022-08-23T02:53:34.530Z,100929.53
2022-08-23T02:54:37.605Z,100940.31
2022-08-23T02:55:39.410Z,100930.19
2022-08-23T02:56:45.571Z,100934.56
2022-08-23T02:57:48.868Z,100934.56
2022-08-23T02:58:54.405Z,100936.22
2022-08-23T02:59:58.017Z,100937.06
2022-08-23T03:01:01.299Z,100934.16
2022-08-23T03:02:03.518Z,100941.25
2022-08-23T03:03:07.736Z,100935.84
2022-08-23T03:04:11.477Z,100935.84
2022-08-23T03:05:14.411Z,100936.69
2022-08-23T03:06:25.390Z,100937.53
2022-08-23T03:07:28.096Z,100932.13
2022-08-23T03:08:30.795Z,100937.53
2022-08-23T03:09:32.654Z,100935.69
2022-08-23T03:10:35.541Z,100937.53
2022-08-23T03:11:37.668Z,100938.38
2022-08-23T03:12:40.401Z,100932.97
2022-08-23T03:13:45.890Z,100938.38
2022-08-23T03:14:49.963Z,100937.53
2022-08-23T03:15:52.029Z,100933.78
2022-08-23T03:16:54.746Z,100933.78
2022-08-23T03:18:00.239Z,100936.50
2022-08-23T03:19:03.230Z,100933.78
2022-08-23T03:20:05.652Z,100943.78
2022-08-23T03:21:10.023Z,100943.56
2022-08-23T03:22:11.795Z,100939.19
2022-08-23T03:23:14.540Z,100938.38
2022-08-23T03:24:16.266Z,100940.25
2022-08-23T03:25:19.076Z,100938.38
2022-08-23T03:26:21.349Z,100947.50
2022-08-23T03:27:24.095Z,100943.94
2022-08-23T03:28:26.348Z,100946.66
2022-08-23T03:29:31.968Z,100946.66
2022-08-23T03:30:34.612Z,100937.72
2022-08-23T03:31:37.405Z,100949.34
2022-08-23T03:32:39.194Z,100944.97
2022-08-23T03:33:52.700Z,100946.66
2022-08-23T03:34:54.576Z,100944.97
2022-08-23T03:36:00.010Z,100947.50
2022-08-23T03:37:03.035Z,100945.81
2022-08-23T03:38:04.791Z,100950.38
2022-08-23T03:39:07.746Z,100950.38
2022-08-23T03:40:10.685Z,100943.94
2022-08-23T03:41:13.339Z,100943.94
2022-08-23T03:42:15.161Z,100950.19
2022-08-23T03:43:17.803Z,100946.66
2022-08-23T03:44:19.443Z,100946.66
2022-08-23T03:45:23.345Z,100952.91
2022-08-23T03:46:25.073Z,100949.19
2022-08-23T03:47:28.329Z,100957.44
2022-08-23T03:48:30.044Z,100948.72
2022-08-23T03:49:32.702Z,100956.81
2022-08-23T03:50:35.277Z,100955.13
2022-08-23T03:51:38.025Z,100954.28
2022-08-23T03:52:40.803Z,100956.16
2022-08-23T03:53:42.389Z,100949.09
2022-08-23T03:54:44.970Z,100956.16
2022-08-23T03:55:46.950Z,100954.50
2022-08-23T03:56:55.669Z,100951.13
2022-08-23T03:57:57.370Z,100961.91
2022-08-23T03:59:02.777Z,100960.06
2022-08-23T04:00:08.790Z,100962.97
2022-08-23T04:01:15.149Z,100958.59
2022-08-23T04:02:17.240Z,100963.97
2022-08-23T04:03:19.994Z,100963.13
2022-08-23T04:04:22.619Z,100971.25
2022-08-23T04:05:25.315Z,100972.41
2022-08-23T04:06:27.466Z,100979.50
2022-08-23T04:07:30.116Z,100975.97
2022-08-23T04:08:33.790Z,100980.53
2022-08-23T04:09:36.716Z,100985.06
2022-08-23T04:10:39.090Z,100982.56
2022-08-23T04:11:41.977Z,100977.16
2022-08-23T04:12:43.732Z,100983.59
2022-08-23T04:13:47.535Z,100975.50
2022-08-23T04:14:49.322Z,100982.75
2022-08-23T04:15:52.192Z,100980.91
2022-08-23T04:16:55.824Z,100990.00
2022-08-23T04:18:00.031Z,100991.03
2022-08-23T04:19:03.869Z,100998.09
2022-08-23T04:20:08.622Z,100992.06
2022-08-23T04:21:14.718Z,100995.78
2022-08-23T04:22:19.092Z,100991.22
2022-08-23T04:23:20.750Z,100996.78
2022-08-23T04:24:23.327Z,100994.09
2022-08-23T04:25:33.350Z,101001.34
2022-08-23T04:26:37.747Z,101003.22
2022-08-23T04:27:39.481Z,100997.84
2022-08-23T04:28:42.112Z,100994.47
2022-08-23T04:29:43.821Z,101000.72
2022-08-23T04:30:46.982Z,100999.03
2022-08-23T04:31:48.953Z,100999.88
2022-08-23T04:32:53.196Z,100999.03
2022-08-23T04:33:56.491Z,101003.56
2022-08-23T04:34:59.627Z,101007.31
2022-08-23T04:36:03.917Z,101007.31
2022-08-23T04:37:09.426Z,101005.63
2022-08-23T04:38:24.576Z,101005.63
2022-08-23T04:39:28.532Z,101003.31
2022-08-23T04:40:48.984Z,101003.13
2022-08-23T04:42:14.296Z,101023.88
2022-08-23T04:43:16.767Z,101012.25
2022-08-23T04:44:19.692Z,101021.34
2022-08-23T04:45:21.502Z,101020.34
2022-08-23T04:46:24.449Z,101022.19
2022-08-23T04:47:27.335Z,101018.66
2022-08-23T04:48:30.282Z,101023.22
2022-08-23T04:49:33.624Z,101026.75
2022-08-23T04:50:36.003Z,101024.06
2022-08-23T04:51:39.223Z,101038.38
2022-08-23T04:52:40.832Z,101021.56
2022-08-23T04:53:44.150Z,101029.66
2022-08-23T04:54:46.644Z,101026.94
2022-08-23T04:55:50.316Z,101032.34
2022-08-23T04:56:52.083Z,101028.81
2022-08-23T04:57:55.328Z,101033.34
2022-08-23T04:58:57.478Z,101029.66
2022-08-23T05:00:00.528Z,101035.03
2022-08-23T05:01:05.331Z,101034.00
2022-08-23T05:02:08.037Z,101027.59
2022-08-23T05:03:09.816Z,101029.66
2022-08-23T05:04:14.277Z,101034.00
2022-08-23T05:05:17.297Z,101027.59
2022-08-23T05:06:20.257Z,101031.31
2022-08-23T05:07:21.853Z,101027.59
2022-08-23T05:08:44.483Z,101035.53
2022-08-23T05:09:46.176Z,101031.13
2022-08-23T05:10:48.899Z,101026.75
2022-08-23T05:11:50.705Z,101041.94
2022-08-23T05:12:53.457Z,101050.88
2022-08-23T05:13:55.316Z,101039.22
2022-08-23T05:14:58.219Z,101039.22
2022-08-23T05:16:00.711Z,101047.97
2022-08-23T05:17:03.403Z,101044.44
2022-08-23T05:18:06.051Z,101039.03
2022-08-23T05:19:08.675Z,101034.31
2022-08-23T05:20:11.987Z,101040.53
2022-08-23T05:21:19.639Z,101039.69
2022-08-23T05:22:21.782Z,101046.75
2022-08-23T05:23:31.735Z,101047.59
2022-08-23T05:24:34.014Z,101042.03
2022-08-23T05:25:53.458Z,101043.88
2022-08-23T05:26:55.315Z,101049.09
2022-08-23T05:27:57.989Z,101044.72
2022-08-23T05:29:00.695Z,101053.47
2022-08-23T05:30:02.832Z,101049.09
2022-08-23T05:31:10.456Z,101041.81
2022-08-23T05:32:14.455Z,101045.56
2022-08-23T05:33:16.048Z,101046.41
2022-08-23T05:34:22.547Z,101048.91
2022-08-23T05:35:25.898Z,101055.16
2022-08-23T05:36:28.597Z,101050.75
2022-08-23T05:37:30.199Z,101054.78
2022-08-23T05:38:33.316Z,101061.88
2022-08-23T05:39:37.247Z,101061.50
2022-08-23T05:40:39.122Z,101067.19
2022-08-23T05:41:41.891Z,101058.34
2022-08-23T05:42:43.653Z,101057.63
2022-08-23T05:43:47.121Z,101063.94
2022-08-23T05:44:50.001Z,101055.75
2022-08-23T05:46:00.029Z,101064.78
2022-08-23T05:47:04.920Z,101062.19
2022-08-23T05:48:13.624Z,101069.69
2022-08-23T05:49:21.224Z,101071.66
2022-08-23T05:50:23.077Z,101062.16
2022-08-23T05:51:29.140Z,101067.63
2022-08-23T05:52:30.819Z,101066.22
2022-08-23T05:53:33.552Z,101066.69
2022-08-23T05:54:35.841Z,101065.34
2022-08-23T05:55:39.148Z,101073.06
2022-08-23T05:56:43.039Z,101065.59
2022-08-23T05:57:47.992Z,101076.41
2022-08-23T05:58:52.162Z,101070.59
2022-08-23T05:59:55.733Z,101080.19
2022-08-23T06:00:57.437Z,101089.59
2022-08-23T06:02:00.302Z,101085.50
2022-08-23T06:03:01.862Z,101080.56
2022-08-23T06:04:07.288Z,101082.88
2022-08-23T06:05:09.835Z,101085.00
2022-08-23T06:06:14.660Z,101082.38
2022-08-23T06:07:17.763Z,101081.78
2022-08-23T06:08:20.344Z,101087.94
2022-08-23T06:09:22.112Z,101091.72
2022-08-23T06:10:25.454Z,101088.44
2022-08-23T06:11:29.547Z,101089.53
2022-08-23T06:12:33.605Z,101080.81
2022-08-23T06:13:40.925Z,101085.50
2022-08-23T06:14:43.626Z,101098.25
2022-08-23T06:15:45.246Z,101094.09
2022-08-23T06:16:54.950Z,101094.38
2022-08-23T06:17:57.443Z,101088.56
2022-08-23T06:19:02.294Z,101088.19
2022-08-23T06:20:05.905Z,101085.28
2022-08-23T06:21:10.029Z,101086.94
2022-08-23T06:22:12.650Z,101083.03
2022-08-23T06:23:15.604Z,101084.94
2022-08-23T06:24:18.210Z,101084.56
2022-08-23T06:25:19.849Z,101087.91
2022-08-23T06:26:25.519Z,101092.91
2022-08-23T06:27:27.149Z,101089.19
2022-08-23T06:28:32.174Z,101092.72
2022-08-23T06:29:33.861Z,101090.03
2022-08-23T06:30:39.794Z,101089.81
2022-08-23T06:31:47.317Z,101094.19
2022-08-23T06:32:51.370Z,101101.28
2022-08-23T06:33:53.567Z,101095.88
2022-08-23T06:35:12.352Z,101102.94
2022-08-23T06:36:18.443Z,101102.94
2022-08-23T06:37:21.206Z,101105.06
2022-08-23T06:38:24.531Z,101101.78
2022-08-23T06:39:29.039Z,101094.91
2022-08-23T06:40:30.718Z,101098.91
2022-08-23T06:41:34.488Z,101101.88
2022-08-23T06:42:38.629Z,101099.44
2022-08-23T06:43:40.863Z,101104.03
2022-08-23T06:44:44.053Z,101110.53
2022-08-23T06:45:48.448Z,101105.38
2022-08-23T06:47:01.013Z,101103.09
2022-08-23T06:48:03.130Z,101102.06
2022-08-23T06:49:07.535Z,101103.72
2022-08-23T06:50:09.899Z,101105.41
2022-08-23T06:51:14.448Z,101106.03
2022-08-23T06:52:17.141Z,101107.72
2022-08-23T06:53:18.711Z,101112.09
2022-08-23T06:54:26.565Z,101108.34
2022-08-23T06:55:28.926Z,101110.88
2022-08-23T06:56:31.895Z,101102.72
2022-08-23T06:57:33.558Z,101112.31
2022-08-23T06:58:36.226Z,101104.84
2022-08-23T06:59:38.955Z,101104.84
2022-08-23T07:00:40.638Z,101102.13
2022-08-23T07:01:47.293Z,101109.22
2022-08-23T07:02:50.372Z,101103.78
2022-08-23T07:03:55.383Z,101111.53
2022-08-23T07:04:58.172Z,101105.06
2022-08-23T07:05:59.810Z,101108.63
2022-08-23T07:07:03.310Z,101107.38
2022-08-23T07:08:05.706Z,101109.06
2022-08-23T07:09:08.677Z,101108.22
2022-08-23T07:10:13.122Z,101109.69
2022-08-23T07:11:19.028Z,101115.09
2022-08-23T07:12:22.027Z,101108.00
2022-08-23T07:13:23.773Z,101115.09
2022-08-23T07:14:27.033Z,101118.47
2022-08-23T07:15:29.686Z,101114.69
2022-08-23T07:16:33.829Z,101118.06
2022-08-23T07:17:36.540Z,101116.38
2022-08-23T07:18:38.865Z,101119.72
2022-08-23T07:19:43.940Z,101120.56
2022-08-23T07:20:45.578Z,101117.00
2022-08-23T07:21:49.377Z,101117.66
2022-08-23T07:22:52.111Z,101116.81
2022-08-23T07:23:53.939Z,101121.00
2022-08-23T07:24:57.403Z,101120.59
2022-08-23T07:26:01.122Z,101118.94
2022-08-23T07:27:07.102Z,101119.41
2022-08-23T07:28:11.735Z,101125.25
2022-08-23T07:29:16.377Z,101122.13
2022-08-23T07:30:18.121Z,101127.38
2022-08-23T07:31:23.808Z,101124.66
2022-08-23T07:32:25.616Z,101125.69
2022-08-23T07:33:28.282Z,101119.63
2022-08-23T07:34:33.981Z,101126.09
2022-08-23T07:35:40.054Z,101123.38
2022-08-23T07:36:45.271Z,101115.66
2022-08-23T07:37:47.225Z,101124.00
2022-08-23T07:38:51.616Z,101119.63
2022-08-23T07:39:56.308Z,101125.19
2022-08-23T07:41:03.549Z,101127.28
2022-08-23T07:42:06.993Z,101128.31
2022-08-23T07:43:25.825Z,101126.00
2022-08-23T07:44:29.080Z,101121.84
2022-08-23T07:45:31.449Z,101128.94
2022-08-23T07:46:37.595Z,101122.66
2022-08-23T07:47:39.276Z,101126.41
2022-08-23T07:48:54.015Z,101126.41
2022-08-23T07:49:57.266Z,101130.16
2022-08-23T07:51:01.191Z,101131.00
2022-08-23T07:52:05.667Z,101129.34
2022-08-23T07:53:07.505Z,101134.78
2022-08-23T07:54:12.533Z,101133.09
2022-08-23T07:55:14.228Z,101133.72
2022-08-23T07:56:20.377Z,101136.22
2022-08-23T07:57:23.314Z,101137.25
2022-08-23T07:58:25.698Z,101141.66
2022-08-23T07:59:34.453Z,101140.59
2022-08-23T08:00:36.834Z,101137.69
2022-08-23T08:01:42.093Z,101134.78
2022-08-23T08:02:43.808Z,101134.78
2022-08-23T08:03:50.703Z,101138.13
2022-08-23T08:04:53.322Z,101136.44
2022-08-23T08:05:57.526Z,101135.41
2022-08-23T08:07:18.302Z,101138.97
2022-08-23T08:08:22.379Z,101136.25
2022-08-23T08:09:24.938Z,101134.41
2022-08-23T08:10:26.553Z,101139.44
2022-08-23T08:11:35.147Z,101132.16
2022-08-23T08:12:37.246Z,101132.78
2022-08-23T08:13:40.577Z,101129.03
2022-08-23T08:14:42.448Z,101129.84
2022-08-23T08:15:45.060Z,101131.53
2022-08-23T08:16:50.370Z,101132.16
2022-08-23T08:17:53.123Z,101132.97
2022-08-23T08:18:56.539Z,101131.09
2022-08-23T08:19:59.217Z,101131.75
2022-08-23T08:21:01.142Z,101131.53
2022-08-23T08:22:03.725Z,101135.72
2022-08-23T08:23:06.228Z,101139.09
2022-08-23T08:24:10.324Z,101134.50
2022-08-23T08:25:12.839Z,101134.09
2022-08-23T08:26:16.000Z,101134.91
2022-08-23T08:27:18.912Z,101131.81
2022-08-23T08:28:21.458Z,101135.75
2022-08-23T08:29:23.382Z,101139.31
2022-08-23T08:30:26.185Z,101138.06
2022-08-23T08:31:28.086Z,101131.59
2022-08-23T08:32:30.720Z,101136.63
2022-08-23T08:33:34.406Z,101139.34
2022-08-23T08:34:38.577Z,101136.22
2022-08-23T08:35:40.293Z,101140.59
2022-08-23T08:36:46.366Z,101136.84
2022-08-23T08:37:48.148Z,101136.84
2022-08-23T08:38:54.363Z,101137.47
2022-08-23T08:40:01.242Z,101139.16
2022-08-23T08:41:12.400Z,101138.75
2022-08-23T08:42:39.053Z,101134.34
2022-08-23T08:43:55.133Z,101134.97
2022-08-23T08:45:01.599Z,101132.91
2022-08-23T08:46:08.731Z,101134.59
2022-08-23T08:47:16.958Z,101140.41
2022-08-23T08:48:23.462Z,101134.78
2022-08-23T08:49:36.141Z,101138.13
2022-08-23T08:50:41.359Z,101143.13
2022-08-23T08:51:50.807Z,101137.50
2022-08-23T08:53:00.529Z,101140.84
2022-08-23T08:54:06.104Z,101140.44
2022-08-23T08:55:14.773Z,101144.66
2022-08-23T08:56:20.939Z,101143.19
2022-08-23T08:57:27.793Z,101150.94
2022-08-23T08:58:36.632Z,101150.53
2022-08-23T08:59:46.929Z,101156.59
2022-08-23T09:00:53.871Z,101152.59
2022-08-23T09:02:00.015Z,101156.78
2022-08-23T09:03:07.509Z,101152.63
2022-08-23T09:04:10.643Z,101146.75
2022-08-23T09:05:15.725Z,101146.34
2022-08-23T09:06:25.616Z,101155.13
2022-08-23T09:07:39.524Z,101142.16
2022-08-23T09:08:51.420Z,101147.41
2022-08-23T09:10:16.685Z,101141.13
2022-08-23T09:11:33.224Z,101138.19
2022-08-23T09:12:51.187Z,101137.16
2022-08-23T09:14:29.463Z,101146.75
2022-08-23T09:15:39.123Z,101144.69
2022-08-23T09:16:51.518Z,101145.91
2022-08-23T09:17:56.117Z,101143.84
2022-08-23T09:19:00.686Z,101138.00
2022-08-23T09:20:06.046Z,101143.00
2022-08-23T09:21:10.325Z,101151.78
2022-08-23T09:22:14.120Z,101147.59
2022-08-23T09:23:21.563Z,101143.63
2022-08-23T09:24:23.240Z,101147.16
2022-08-23T09:25:25.967Z,101140.47
2022-08-23T09:26:30.527Z,101149.47
2022-08-23T09:27:33.331Z,101140.47
2022-08-23T09:28:38.104Z,101142.00
2022-08-23T09:29:50.886Z,101145.31
2022-08-23T09:30:56.067Z,101143.22
2022-08-23T09:32:02.243Z,101143.84
2022-08-23T09:33:18.524Z,101143.44
2022-08-23T09:34:22.760Z,101143.00
2022-08-23T09:35:27.007Z,101141.31
2022-08-23T09:36:33.903Z,101148.19
2022-08-23T09:37:50.481Z,101147.16
2022-08-23T09:38:55.218Z,101145.09
2022-08-23T09:40:17.218Z,101142.13
2022-08-23T09:41:25.067Z,101144.22
2022-08-23T09:42:29.602Z,101146.53
2022-08-23T09:43:48.236Z,101142.72
2022-08-23T09:44:50.872Z,101145.44
2022-08-23T09:45:57.425Z,101144.22
2022-08-23T09:47:05.780Z,101142.94
2022-08-23T09:48:15.123Z,101140.00
2022-08-23T09:49:26.636Z,101142.09
2022-08-23T09:50:31.985Z,101141.66
2022-08-23T09:51:39.244Z,101139.13
2022-08-23T09:52:47.601Z,101139.50
2022-08-23T09:54:07.979Z,101138.28
2022-08-23T09:55:13.658Z,101135.97
2022-08-23T09:56:19.534Z,101132.00
2022-08-23T09:57:26.124Z,101138.03
2022-08-23T09:58:36.894Z,101132.59
2022-08-23T09:59:43.977Z,101131.56
2022-08-23T10:01:00.958Z,101133.25
2022-08-23T10:02:04.066Z,101133.84
2022-08-23T10:03:25.354Z,101131.13
2022-08-23T10:04:39.654Z,101133.84
2022-08-23T10:05:42.537Z,101124.00
2022-08-23T10:06:46.252Z,101130.09
2022-08-23T10:07:56.192Z,101123.81
2022-08-23T10:09:02.087Z,101127.13
2022-08-23T10:10:21.585Z,101128.56
2022-08-23T10:11:27.982Z,101125.66
2022-08-23T10:12:31.262Z,101128.19
2022-08-23T10:13:34.944Z,101123.09
2022-08-23T10:14:36.831Z,101129.19
2022-08-23T10:15:53.422Z,101124.59
2022-08-23T10:17:04.585Z,101122.69
2022-08-23T10:18:15.867Z,101125.78
2022-08-23T10:19:24.384Z,101124.53
2022-08-23T10:20:37.230Z,101124.31
2022-08-23T10:21:42.970Z,101122.22
2022-08-23T10:22:48.728Z,101123.88
2022-08-23T10:24:03.960Z,101124.50
2022-08-23T10:25:12.437Z,101121.78
2022-08-23T10:26:26.684Z,101123.44
2022-08-23T10:27:57.014Z,101119.66
2022-08-23T10:29:27.545Z,101124.06
2022-08-23T10:30:42.730Z,101123.44
2022-08-23T10:31:59.031Z,101121.34
2022-08-23T10:33:09.425Z,101117.56
2022-08-23T10:34:30.071Z,101123.63
2022-08-23T10:35:40.283Z,101121.50
2022-08-23T10:39:11.485Z,101116.06
2022-08-23T10:40:20.660Z,101115.44
2022-08-23T10:41:45.740Z,101119.59
2022-08-23T10:43:00.044Z,101116.44
2022-08-23T10:44:14.122Z,101119.94
2022-08-23T10:45:29.881Z,101121.38
2022-08-23T10:46:39.730Z,101119.94
2022-08-23T10:47:59.138Z,101118.44
2022-08-23T10:49:03.720Z,101113.38
2022-08-23T10:50:08.208Z,101110.81
2022-08-23T10:51:20.015Z,101111.41
2022-08-23T10:52:34.398Z,101126.97
2022-08-23T10:53:38.151Z,101106.59
2022-08-23T10:54:49.493Z,101109.47
2022-08-23T10:56:02.854Z,101111.75
2022-08-23T10:57:07.455Z,101104.41
2022-08-23T10:58:13.070Z,101106.69
2022-08-23T10:59:20.276Z,101110.25
2022-08-23T11:00:25.334Z,101106.25
2022-08-23T11:01:36.073Z,101106.88
2022-08-23T11:02:47.630Z,101106.66
2022-08-23T11:04:01.987Z,101104.53
2022-08-23T11:05:08.907Z,101107.88
2022-08-23T11:06:47.943Z,101111.81
2022-08-23T11:08:03.287Z,101098.78
2022-08-23T11:09:07.917Z,101096.25
2022-08-23T11:10:17.194Z,101098.53
2022-08-23T11:11:40.811Z,101099.81
2022-08-23T11:12:56.112Z,101099.38
2022-08-23T11:13:57.830Z,101103.97
2022-08-23T11:15:11.096Z,101097.44
2022-08-23T11:16:23.054Z,101103.53
2022-08-23T11:17:28.174Z,101104.13
2022-08-23T11:18:43.060Z,101100.38
2022-08-23T11:19:52.397Z,101102.66
2022-08-23T11:21:06.775Z,101099.94
2022-08-23T11:22:18.496Z,101100.97
2022-08-23T11:23:36.766Z,101104.78
2022-08-23T11:24:56.016Z,101097.19
2022-08-23T11:25:57.912Z,101095.06
2022-08-23T11:27:07.677Z,101098.41
2022-08-23T11:28:39.481Z,101087.97
2022-08-23T11:29:43.544Z,101101.38
2022-08-23T11:30:50.680Z,101096.75
2022-08-23T11:32:01.689Z,101092.13
2022-08-23T11:33:15.243Z,101099.25
2022-08-23T11:34:29.735Z,101092.97
2022-08-23T11:35:43.073Z,101087.53
2022-08-23T11:37:27.109Z,101091.88
2022-08-23T11:39:11.044Z,101085.38
2022-08-23T11:40:17.476Z,101090.19
2022-08-23T11:41:25.917Z,101092.00
2022-08-23T11:42:50.059Z,101089.66
2022-08-23T11:44:22.030Z,101091.91
2022-08-23T11:45:30.505Z,101094.78
2022-08-23T11:46:35.697Z,101090.56
2022-08-23T11:47:40.995Z,101092.22
2022-08-23T11:48:50.553Z,101093.06
2022-08-23T11:50:15.655Z,101098.72
2022-08-23T11:51:28.894Z,101096.00
2022-08-23T11:53:15.261Z,101096.00
2022-08-23T11:54:36.310Z,101090.56
2022-08-23T11:56:02.635Z,101087.81
2022-08-23T11:57:19.109Z,101093.91
2022-08-23T11:58:27.873Z,101090.72
2022-08-23T12:00:02.611Z,101086.69
2022-08-23T12:01:11.157Z,101085.41
2022-08-23T12:02:33.756Z,101088.72
2022-08-23T12:03:53.869Z,101079.03
2022-08-23T12:04:59.867Z,101086.53
2022-08-23T12:06:13.515Z,101081.25
2022-08-23T12:08:07.993Z,101081.63
2022-08-23T12:09:59.193Z,101086.22
2022-08-23T12:11:08.529Z,101084.34
2022-08-23T12:12:25.953Z,101081.63
2022-08-23T12:13:44.663Z,101084.97
2022-08-23T12:14:54.791Z,101082.25
2022-08-23T12:16:16.364Z,101079.25
2022-08-23T12:18:11.709Z,101080.09
2022-08-23T12:19:29.326Z,101074.19
2022-08-23T12:20:32.230Z,101079.53
2022-08-23T12:21:47.399Z,101079.47
2022-08-23T12:23:07.719Z,101078.53
2022-08-23T12:24:17.690Z,101079.50
2022-08-23T12:25:21.516Z,101071.91
2022-08-23T12:26:28.583Z,101074.66
2022-08-23T12:27:34.663Z,101075.94
2022-08-23T12:28:44.044Z,101070.50
2022-08-23T12:29:58.923Z,101070.03
2022-08-23T12:31:08.104Z,101067.88
2022-08-23T12:32:21.370Z,101074.56
2022-08-23T12:33:37.343Z,101069.69
2022-08-23T12:34:52.940Z,101072.56
2022-08-23T12:36:00.896Z,101074.81
2022-08-23T12:37:12.579Z,101077.09
2022-08-23T12:38:25.556Z,101073.50
2022-08-23T12:39:31.478Z,101076.06
2022-08-23T12:40:42.043Z,101078.53
2022-08-23T12:41:54.103Z,101077.09
2022-08-23T12:43:06.737Z,101077.09
2022-08-23T12:44:10.261Z,101078.59
2022-08-23T12:45:15.551Z,101070.19
2022-08-23T12:46:29.903Z,101076.13